createdAt,value
2019-03-08T00:00:01.843Z,8.06
2019-03-08T00:01:11.575Z,7.99
2019-03-08T00:02:21.551Z,8.05
2019-03-08T00:03:31.538Z,7.93
2019-03-08T00:04:41.280Z,7.99
2019-03-08T00:05:51.311Z,7.95
2019-03-08T00:07:00.823Z,7.99
2019-03-08T00:08:10.807Z,7.95
2019-03-08T00:09:20.527Z,7.95
2019-03-08T00:10:30.530Z,8.05
2019-03-08T00:11:40.550Z,8.03
2019-03-08T00:12:50.524Z,7.99
2019-03-08T00:14:00.522Z,8.02
2019-03-08T00:15:10.502Z,8.02
2019-03-08T00:16:20.516Z,7.9
2019-03-08T00:17:30.500Z,7.99
2019-03-08T00:18:40.469Z,8.02
2019-03-08T00:19:50.264Z,7.99
2019-03-08T00:21:00.249Z,8.01
2019-03-08T00:22:10.557Z,8.01
2019-03-08T00:23:20.281Z,8.08
2019-03-08T00:24:30.489Z,8.03
2019-03-08T00:25:40.966Z,7.95
2019-03-08T00:26:51.814Z,8.05
2019-03-08T00:28:03.156Z,8.02
2019-03-08T00:29:13.137Z,8.05
2019-03-08T00:30:23.266Z,7.93
2019-03-08T00:31:33.302Z,7.99
2019-03-08T00:32:43.268Z,7.84
2019-03-08T00:33:53.012Z,7.95
2019-03-08T00:35:03.051Z,7.84
2019-03-08T00:36:13.207Z,7.83
2019-03-08T00:37:22.920Z,7.74
2019-03-08T00:38:32.672Z,7.85
2019-03-08T00:39:42.432Z,7.77
2019-03-08T00:40:52.457Z,7.84
2019-03-08T00:42:02.427Z,7.85
2019-03-08T00:43:12.394Z,7.84
2019-03-08T00:44:22.133Z,7.88
2019-03-08T00:45:32.129Z,7.83
2019-03-08T00:46:42.098Z,7.84
2019-03-08T00:47:52.082Z,7.85
2019-03-08T00:49:02.078Z,7.8
2019-03-08T00:50:13.486Z,7.85
2019-03-08T00:51:23.459Z,7.87
2019-03-08T00:52:35.436Z,7.9
2019-03-08T00:53:45.438Z,7.84
2019-03-08T00:54:55.159Z,7.87
2019-03-08T00:56:05.213Z,7.84
2019-03-08T00:57:14.713Z,7.84
2019-03-08T00:58:24.482Z,7.9
2019-03-08T00:59:34.360Z,7.83
2019-03-08T01:00:44.342Z,7.87
2019-03-08T01:01:53.820Z,7.96
2019-03-08T01:03:03.894Z,7.85
2019-03-08T01:04:13.984Z,7.95
2019-03-08T01:05:23.956Z,7.93
2019-03-08T01:06:35.244Z,7.95
2019-03-08T01:07:44.993Z,7.87
2019-03-08T01:08:54.474Z,7.84
2019-03-08T01:10:03.958Z,7.98
2019-03-08T01:11:13.946Z,7.91
2019-03-08T01:12:23.923Z,7.99
2019-03-08T01:13:33.900Z,7.98
2019-03-08T01:14:43.900Z,8.05
2019-03-08T01:15:54.123Z,7.98
2019-03-08T01:17:04.372Z,8.05
2019-03-08T01:18:14.421Z,7.87
2019-03-08T01:19:24.792Z,8.01
2019-03-08T01:20:35.417Z,8.02
2019-03-08T01:21:45.718Z,7.99
2019-03-08T01:22:56.303Z,8.03
2019-03-08T01:24:06.188Z,8.01
2019-03-08T01:25:16.118Z,7.98
2019-03-08T01:26:26.825Z,7.91
2019-03-08T01:27:36.568Z,7.91
2019-03-08T01:28:46.564Z,7.83
2019-03-08T01:29:56.283Z,7.93
2019-03-08T01:31:05.532Z,7.88
2019-03-08T01:32:15.017Z,7.93
2019-03-08T01:33:24.520Z,7.95
2019-03-08T01:34:34.278Z,7.98
2019-03-08T01:35:44.267Z,7.84
2019-03-08T01:36:53.762Z,7.95
2019-03-08T01:38:03.730Z,7.9
2019-03-08T01:39:13.226Z,7.9
2019-03-08T01:40:22.965Z,8.03
2019-03-08T01:41:33.710Z,7.96
2019-03-08T01:42:45.751Z,7.98
2019-03-08T01:43:55.505Z,7.98
2019-03-08T01:45:06.257Z,7.96
2019-03-08T01:46:16.237Z,7.87
2019-03-08T01:47:26.236Z,7.91
2019-03-08T01:48:36.205Z,7.9
2019-03-08T01:49:46.187Z,7.91
2019-03-08T01:50:55.667Z,7.91
2019-03-08T01:52:05.417Z,7.91
2019-03-08T01:53:15.411Z,7.85
2019-03-08T01:54:25.158Z,7.81
2019-03-08T01:55:35.164Z,7.91
2019-03-08T01:56:45.395Z,7.85
2019-03-08T01:57:55.129Z,7.98
2019-03-08T01:59:04.886Z,7.84
2019-03-08T02:00:15.361Z,7.84
2019-03-08T02:01:24.857Z,7.91
2019-03-08T02:02:34.850Z,7.84
2019-03-08T02:03:44.860Z,7.95
2019-03-08T02:04:54.827Z,7.96
2019-03-08T02:06:04.818Z,7.91
2019-03-08T02:07:14.547Z,7.81
2019-03-08T02:08:24.629Z,7.91
2019-03-08T02:09:34.636Z,7.85
2019-03-08T02:10:44.849Z,7.81
2019-03-08T02:11:55.292Z,7.96
2019-03-08T02:13:05.749Z,7.84
2019-03-08T02:14:16.261Z,7.83
2019-03-08T02:15:26.678Z,7.87
2019-03-08T02:16:36.801Z,7.93
2019-03-08T02:17:45.983Z,7.9
2019-03-08T02:18:56.039Z,7.95
2019-03-08T02:20:06.017Z,7.93
2019-03-08T02:21:15.997Z,7.93
2019-03-08T02:22:26.104Z,7.87
2019-03-08T02:23:36.103Z,7.84
2019-03-08T02:24:46.098Z,7.77
2019-03-08T02:25:55.842Z,7.8
2019-03-08T02:27:05.833Z,7.85
2019-03-08T02:28:15.568Z,7.83
2019-03-08T02:29:25.589Z,7.95
2019-03-08T02:30:35.601Z,7.93
2019-03-08T02:31:45.595Z,7.91
2019-03-08T02:32:55.338Z,8.01
2019-03-08T02:34:05.067Z,8.02
2019-03-08T02:35:15.076Z,7.99
2019-03-08T02:36:25.063Z,7.99
2019-03-08T02:37:35.068Z,7.98
2019-03-08T02:38:44.545Z,8.11
2019-03-08T02:39:54.513Z,8.03
2019-03-08T02:41:03.988Z,8.05
2019-03-08T02:42:13.967Z,8.06
2019-03-08T02:43:23.958Z,8.02
2019-03-08T02:44:33.697Z,8.06
2019-03-08T02:45:43.442Z,7.99
2019-03-08T02:46:53.442Z,8.13
2019-03-08T02:48:03.180Z,8.05
2019-03-08T02:49:12.942Z,8.06
2019-03-08T02:50:22.684Z,8.18
2019-03-08T02:51:32.462Z,8.14
2019-03-08T02:52:42.221Z,8.13
2019-03-08T02:53:52.206Z,8.16
2019-03-08T02:55:01.941Z,8.11
2019-03-08T02:56:11.180Z,8.14
2019-03-08T02:57:20.921Z,8.17
2019-03-08T02:58:30.910Z,8.16
2019-03-08T02:59:40.896Z,8.06
2019-03-08T03:00:50.881Z,8.05
2019-03-08T03:02:00.874Z,8.08
2019-03-08T03:03:10.865Z,8.06
2019-03-08T03:04:20.883Z,8.08
2019-03-08T03:05:30.864Z,8.06
2019-03-08T03:06:42.161Z,8.16
2019-03-08T03:07:52.819Z,8.16
2019-03-08T03:09:03.241Z,8.23
2019-03-08T03:10:13.600Z,8.16
2019-03-08T03:11:23.790Z,8.13
2019-03-08T03:12:33.753Z,8.18
2019-03-08T03:13:43.276Z,8.2
2019-03-08T03:14:53.006Z,8.26
2019-03-08T03:16:02.478Z,8.24
2019-03-08T03:17:12.466Z,8.27
2019-03-08T03:18:21.944Z,8.21
2019-03-08T03:19:31.910Z,8.27
2019-03-08T03:20:41.428Z,8.21
2019-03-08T03:21:51.427Z,8.23
2019-03-08T03:23:01.404Z,8.23
2019-03-08T03:24:11.397Z,8.18
2019-03-08T03:25:21.376Z,8.16
2019-03-08T03:26:31.096Z,8.16
2019-03-08T03:27:41.072Z,8.09
2019-03-08T03:28:50.819Z,8.23
2019-03-08T03:30:00.832Z,8.21
2019-03-08T03:31:10.823Z,8.18
2019-03-08T03:32:20.580Z,8.16
2019-03-08T03:33:30.590Z,8.17
2019-03-08T03:34:40.579Z,8.2
2019-03-08T03:35:50.587Z,8.08
2019-03-08T03:37:00.316Z,8.21
2019-03-08T03:38:09.800Z,8.18
2019-03-08T03:39:19.783Z,8.18
2019-03-08T03:40:29.796Z,8.32
2019-03-08T03:41:39.295Z,8.31
2019-03-08T03:42:49.297Z,8.31
2019-03-08T03:43:59.019Z,8.27
2019-03-08T03:45:09.014Z,8.35
2019-03-08T03:46:19.012Z,8.34
2019-03-08T03:47:28.982Z,8.34
2019-03-08T03:48:38.967Z,8.36
2019-03-08T03:49:48.697Z,8.35
2019-03-08T03:50:58.709Z,8.36
2019-03-08T03:52:08.450Z,8.36
2019-03-08T03:53:18.172Z,8.44
2019-03-08T03:54:27.650Z,8.39
2019-03-08T03:55:37.126Z,8.34
2019-03-08T03:56:47.120Z,8.35
2019-03-08T03:57:58.856Z,8.35
2019-03-08T03:59:08.576Z,8.54
2019-03-08T04:00:18.580Z,8.46
2019-03-08T04:01:28.566Z,8.5
2019-03-08T04:02:38.743Z,8.54
2019-03-08T04:03:49.085Z,8.64
2019-03-08T04:04:59.250Z,8.61
2019-03-08T04:06:09.642Z,8.61
2019-03-08T04:07:20.351Z,8.66
2019-03-08T04:08:30.694Z,8.53
2019-03-08T04:09:40.888Z,8.54
2019-03-08T04:10:50.724Z,8.63
2019-03-08T04:12:00.739Z,8.6
2019-03-08T04:13:10.715Z,8.57
2019-03-08T04:14:20.454Z,8.57
2019-03-08T04:15:29.965Z,8.66
2019-03-08T04:16:39.942Z,8.66
2019-03-08T04:17:49.945Z,8.6
2019-03-08T04:18:59.972Z,8.56
2019-03-08T04:20:09.950Z,8.42
2019-03-08T04:21:19.937Z,8.56
2019-03-08T04:22:29.647Z,8.59
2019-03-08T04:23:39.150Z,8.63
2019-03-08T04:24:49.137Z,8.56
2019-03-08T04:25:58.620Z,8.64
2019-03-08T04:27:08.380Z,8.61
2019-03-08T04:28:18.377Z,8.63
2019-03-08T04:29:28.366Z,8.66
2019-03-08T04:30:38.339Z,8.66
2019-03-08T04:31:47.555Z,8.69
2019-03-08T04:32:57.528Z,8.64
2019-03-08T04:34:08.896Z,8.64
2019-03-08T04:35:18.635Z,8.69
2019-03-08T04:36:30.226Z,8.64
2019-03-08T04:37:40.352Z,8.66
2019-03-08T04:38:50.084Z,8.68
2019-03-08T04:39:59.582Z,8.63
2019-03-08T04:41:09.587Z,8.71
2019-03-08T04:42:19.566Z,8.64
2019-03-08T04:43:29.536Z,8.82
2019-03-08T04:44:39.546Z,8.69
2019-03-08T04:45:49.524Z,8.77
2019-03-08T04:46:59.010Z,8.74
2019-03-08T04:48:08.485Z,8.72
2019-03-08T04:49:18.450Z,8.69
2019-03-08T04:50:28.431Z,8.72
2019-03-08T04:51:38.177Z,8.71
2019-03-08T04:52:48.156Z,8.68
2019-03-08T04:53:58.131Z,8.68
2019-03-08T04:55:07.867Z,8.64
2019-03-08T04:56:17.591Z,8.64
2019-03-08T04:57:27.075Z,8.56
2019-03-08T04:58:36.820Z,8.72
2019-03-08T04:59:46.805Z,8.74
2019-03-08T05:00:57.033Z,8.74
2019-03-08T05:02:06.997Z,8.77
2019-03-08T05:03:16.769Z,8.74
2019-03-08T05:04:27.115Z,8.87
2019-03-08T05:05:37.886Z,8.92
2019-03-08T05:06:48.508Z,8.95
2019-03-08T05:07:58.786Z,8.89
2019-03-08T05:09:08.731Z,8.84
2019-03-08T05:10:18.614Z,8.79
2019-03-08T05:11:28.626Z,8.81
2019-03-08T05:12:38.363Z,8.78
2019-03-08T05:13:48.384Z,8.71
2019-03-08T05:14:58.368Z,8.75
2019-03-08T05:16:07.866Z,8.77
2019-03-08T05:17:17.843Z,8.74
2019-03-08T05:18:27.833Z,8.84
2019-03-08T05:19:38.337Z,8.89
2019-03-08T05:20:48.334Z,8.86
2019-03-08T05:21:57.843Z,8.84
2019-03-08T05:23:07.577Z,8.92
2019-03-08T05:24:17.576Z,8.81
2019-03-08T05:25:27.587Z,8.87
2019-03-08T05:26:37.322Z,8.93
2019-03-08T05:27:46.812Z,8.9
2019-03-08T05:28:56.335Z,8.92
2019-03-08T05:30:06.328Z,8.92
2019-03-08T05:31:16.509Z,8.99
2019-03-08T05:32:26.501Z,8.99
2019-03-08T05:33:36.495Z,8.93
2019-03-08T05:34:45.994Z,8.9
2019-03-08T05:35:55.716Z,8.96
2019-03-08T05:37:05.191Z,8.99
2019-03-08T05:38:14.944Z,9.02
2019-03-08T05:39:24.925Z,8.9
2019-03-08T05:40:34.926Z,8.97
2019-03-08T05:41:44.926Z,8.96
2019-03-08T05:42:54.640Z,8.99
2019-03-08T05:44:03.907Z,8.99
2019-03-08T05:45:13.906Z,9.08
2019-03-08T05:46:23.639Z,9.05
2019-03-08T05:47:33.626Z,9.11
2019-03-08T05:48:43.617Z,9.11
2019-03-08T05:49:53.610Z,9.12
2019-03-08T05:51:03.604Z,9.13
2019-03-08T05:52:13.091Z,9.12
2019-03-08T05:53:22.834Z,9.11
2019-03-08T05:54:32.838Z,9.16
2019-03-08T05:55:42.823Z,9.21
2019-03-08T05:56:52.563Z,9.09
2019-03-08T05:58:02.467Z,9.22
2019-03-08T05:59:12.472Z,9.19
2019-03-08T06:00:31.224Z,9.13
2019-03-08T06:01:43.460Z,9.19
2019-03-08T06:02:54.049Z,9.13
2019-03-08T06:04:04.246Z,9.16
2019-03-08T06:05:14.501Z,9.18
2019-03-08T06:06:26.059Z,9.19
2019-03-08T06:07:36.166Z,9.21
2019-03-08T06:08:45.901Z,9.18
2019-03-08T06:09:55.889Z,9.22
2019-03-08T06:11:05.887Z,9.18
2019-03-08T06:12:15.883Z,9.18
2019-03-08T06:13:25.869Z,9.22
2019-03-08T06:14:35.855Z,9.16
2019-03-08T06:15:45.578Z,9.22
2019-03-08T06:16:55.308Z,9.26
2019-03-08T06:18:05.307Z,9.24
2019-03-08T06:19:15.305Z,9.26
2019-03-08T06:20:25.309Z,9.24
2019-03-08T06:21:35.310Z,9.29
2019-03-08T06:22:45.302Z,9.27
2019-03-08T06:23:55.047Z,9.3
2019-03-08T06:25:05.108Z,9.29
2019-03-08T06:26:15.111Z,9.27
2019-03-08T06:27:24.848Z,9.4
2019-03-08T06:28:34.987Z,9.29
2019-03-08T06:29:44.977Z,9.36
2019-03-08T06:30:54.939Z,9.26
2019-03-08T06:32:04.697Z,9.22
2019-03-08T06:33:14.691Z,9.26
2019-03-08T06:34:24.451Z,9.36
2019-03-08T06:35:34.434Z,9.27
2019-03-08T06:36:43.942Z,9.36
2019-03-08T06:37:53.447Z,9.4
2019-03-08T06:39:03.425Z,9.39
2019-03-08T06:40:13.410Z,9.47
2019-03-08T06:41:23.145Z,9.42
2019-03-08T06:42:32.891Z,9.39
2019-03-08T06:43:42.875Z,9.37
2019-03-08T06:44:52.867Z,9.39
2019-03-08T06:46:02.848Z,9.36
2019-03-08T06:47:12.349Z,9.4
2019-03-08T06:48:22.089Z,9.42
2019-03-08T06:49:32.053Z,9.44
2019-03-08T06:50:42.061Z,9.45
2019-03-08T06:51:52.043Z,9.42
2019-03-08T06:53:02.037Z,9.47
2019-03-08T06:54:11.561Z,9.4
2019-03-08T06:55:21.060Z,9.44
2019-03-08T06:56:30.306Z,9.47
2019-03-08T06:57:40.327Z,9.49
2019-03-08T06:58:50.354Z,9.42
2019-03-08T07:00:00.363Z,9.39
2019-03-08T07:01:09.852Z,9.42
2019-03-08T07:02:19.329Z,9.4
2019-03-08T07:03:29.080Z,9.39
2019-03-08T07:04:38.310Z,9.39
2019-03-08T07:05:48.518Z,9.39
2019-03-08T07:06:58.482Z,9.39
2019-03-08T07:08:08.907Z,9.39
2019-03-08T07:09:19.264Z,9.39
2019-03-08T07:10:29.997Z,9.36
2019-03-08T07:11:40.754Z,9.37
2019-03-08T07:12:51.177Z,9.26
2019-03-08T07:14:10.170Z,9.29
2019-03-08T07:15:20.171Z,9.29
2019-03-08T07:16:29.901Z,9.29
2019-03-08T07:17:39.649Z,9.21
2019-03-08T07:18:49.669Z,9.27
2019-03-08T07:19:59.395Z,9.3
2019-03-08T07:21:09.141Z,9.29
2019-03-08T07:22:19.133Z,9.33
2019-03-08T07:23:32.963Z,9.26
2019-03-08T07:24:42.947Z,9.4
2019-03-08T07:25:57.271Z,9.36
2019-03-08T07:27:07.267Z,9.39
2019-03-08T07:28:17.273Z,9.36
2019-03-08T07:29:27.259Z,9.36
2019-03-08T07:30:37.243Z,9.34
2019-03-08T07:31:46.997Z,9.27
2019-03-08T07:32:56.715Z,9.33
2019-03-08T07:34:06.706Z,9.44
2019-03-08T07:35:18.009Z,9.29
2019-03-08T07:36:29.410Z,9.33
2019-03-08T07:37:40.234Z,9.45
2019-03-08T07:38:50.327Z,9.4
2019-03-08T07:39:59.821Z,9.4
2019-03-08T07:41:09.554Z,9.37
2019-03-08T07:42:19.551Z,9.39
2019-03-08T07:43:29.337Z,9.36
2019-03-08T07:44:39.334Z,9.31
2019-03-08T07:45:49.321Z,9.24
2019-03-08T07:46:59.323Z,9.24
2019-03-08T07:48:09.313Z,9.45
2019-03-08T07:49:19.521Z,9.42
2019-03-08T07:50:30.501Z,9.37
2019-03-08T07:51:41.322Z,9.42
2019-03-08T07:52:51.609Z,9.44
2019-03-08T07:54:02.099Z,9.36
2019-03-08T07:55:12.470Z,9.47
2019-03-08T07:56:22.654Z,9.42
2019-03-08T07:57:32.176Z,9.45
2019-03-08T07:58:41.933Z,9.45
2019-03-08T07:59:58.551Z,9.47
2019-03-08T08:01:08.333Z,9.48
2019-03-08T08:02:18.347Z,9.4
2019-03-08T08:03:28.362Z,9.44
2019-03-08T08:04:38.096Z,9.59
2019-03-08T08:05:57.247Z,9.58
2019-03-08T08:07:06.953Z,9.62
2019-03-08T08:08:16.713Z,9.58
2019-03-08T08:09:26.726Z,9.63
2019-03-08T08:10:36.457Z,9.59
2019-03-08T08:11:46.214Z,9.62
2019-03-08T08:12:56.194Z,9.52
2019-03-08T08:14:06.195Z,9.56
2019-03-08T08:15:16.196Z,9.64
2019-03-08T08:16:25.945Z,9.7
2019-03-08T08:17:35.938Z,9.69
2019-03-08T08:18:45.955Z,9.82
2019-03-08T08:19:55.714Z,9.81
2019-03-08T08:21:06.142Z,9.84
2019-03-08T08:22:16.921Z,9.8
2019-03-08T08:23:36.413Z,9.77
2019-03-08T08:24:48.314Z,9.77
2019-03-08T08:25:58.865Z,9.7
2019-03-08T08:27:09.311Z,9.81
2019-03-08T08:28:19.213Z,9.73
2019-03-08T08:29:37.307Z,9.72
2019-03-08T08:30:47.301Z,9.7
2019-03-08T08:31:56.296Z,9.69
2019-03-08T08:33:06.329Z,9.66
2019-03-08T08:34:16.317Z,9.66
2019-03-08T08:35:27.298Z,9.66
2019-03-08T08:36:37.295Z,9.63
2019-03-08T08:37:47.295Z,9.62
2019-03-08T08:38:57.271Z,9.58
2019-03-08T08:40:07.275Z,9.67
2019-03-08T08:41:17.277Z,9.58
2019-03-08T08:42:27.245Z,9.54
2019-03-08T08:43:37.242Z,9.59
2019-03-08T08:44:47.002Z,9.56
2019-03-08T08:45:58.447Z,9.56
2019-03-08T08:47:07.942Z,9.62
2019-03-08T08:48:19.868Z,9.59
2019-03-08T08:49:29.879Z,9.62
2019-03-08T08:50:40.564Z,9.59
2019-03-08T08:51:50.622Z,9.58
2019-03-08T08:53:00.364Z,9.58
2019-03-08T08:54:10.092Z,9.62
2019-03-08T08:55:20.086Z,9.55
2019-03-08T08:56:30.083Z,9.58
2019-03-08T08:57:40.053Z,9.58
2019-03-08T08:58:49.783Z,9.63
2019-03-08T09:00:01.897Z,9.51
2019-03-08T09:01:11.914Z,9.58
2019-03-08T09:02:21.983Z,9.55
2019-03-08T09:03:32.038Z,9.58
2019-03-08T09:04:42.555Z,9.55
2019-03-08T09:05:52.514Z,9.62
2019-03-08T09:07:04.392Z,9.56
2019-03-08T09:08:15.068Z,9.58
2019-03-08T09:09:25.283Z,9.55
2019-03-08T09:10:35.517Z,9.62
2019-03-08T09:11:55.363Z,9.59
2019-03-08T09:13:05.382Z,9.59
2019-03-08T09:14:15.373Z,9.56
2019-03-08T09:15:25.115Z,9.56
2019-03-08T09:16:34.887Z,9.54
2019-03-08T09:17:44.622Z,9.44
2019-03-08T09:18:54.620Z,9.49
2019-03-08T09:20:04.227Z,9.4
2019-03-08T09:21:14.231Z,9.4
2019-03-08T09:22:23.966Z,9.24
2019-03-08T09:23:33.947Z,9.26
2019-03-08T09:24:43.950Z,9.39
2019-03-08T09:25:53.426Z,9.36
2019-03-08T09:27:03.447Z,9.42
2019-03-08T09:28:13.429Z,9.47
2019-03-08T09:29:23.429Z,9.49
2019-03-08T09:30:33.184Z,9.44
2019-03-08T09:31:43.183Z,9.33
2019-03-08T09:33:01.676Z,9.37
2019-03-08T09:34:11.690Z,9.27
2019-03-08T09:35:21.681Z,9.21
2019-03-08T09:36:31.450Z,9.19
2019-03-08T09:37:41.215Z,9.26
2019-03-08T09:38:50.701Z,9.29
2019-03-08T09:40:00.718Z,9.34
2019-03-08T09:41:10.438Z,9.22
2019-03-08T09:42:20.456Z,9.16
2019-03-08T09:43:30.458Z,9.18
2019-03-08T09:44:40.472Z,9.24
2019-03-08T09:45:50.794Z,9.26
2019-03-08T09:47:00.840Z,9.27
2019-03-08T09:48:11.214Z,9.36
2019-03-08T09:49:21.861Z,9.24
2019-03-08T09:50:32.343Z,9.34
2019-03-08T09:51:42.647Z,9.4
2019-03-08T09:52:52.342Z,9.49
2019-03-08T09:54:02.473Z,9.49
2019-03-08T09:55:12.244Z,9.48
2019-03-08T09:56:22.003Z,9.47
2019-03-08T09:57:31.986Z,9.49
2019-03-08T09:58:41.463Z,9.39
2019-03-08T09:59:51.200Z,9.37
2019-03-08T10:01:00.944Z,9.37
2019-03-08T10:02:10.963Z,9.45
2019-03-08T10:03:20.931Z,9.24
2019-03-08T10:04:30.688Z,9.29
2019-03-08T10:05:40.686Z,9.29
2019-03-08T10:06:50.718Z,9.26
2019-03-08T10:08:00.722Z,9.24
2019-03-08T10:09:10.717Z,9.16
2019-03-08T10:10:20.707Z,9.22
2019-03-08T10:11:30.703Z,9.21
2019-03-08T10:12:40.216Z,9.21
2019-03-08T10:13:49.963Z,9.27
2019-03-08T10:14:59.732Z,9.27
2019-03-08T10:16:09.718Z,9.29
2019-03-08T10:17:19.454Z,9.34
2019-03-08T10:18:29.447Z,9.39
2019-03-08T10:19:39.183Z,9.44
2019-03-08T10:20:48.909Z,9.52
2019-03-08T10:21:58.928Z,9.54
2019-03-08T10:23:08.909Z,9.62
2019-03-08T10:24:27.546Z,9.64
2019-03-08T10:25:37.041Z,9.72
2019-03-08T10:26:46.794Z,9.56
2019-03-08T10:27:56.788Z,9.47
2019-03-08T10:29:06.778Z,9.44
2019-03-08T10:30:16.748Z,9.24
2019-03-08T10:31:26.735Z,9.05
2019-03-08T10:32:42.317Z,9.03
2019-03-08T10:33:52.258Z,8.84
2019-03-08T10:35:03.061Z,8.86
2019-03-08T10:36:13.853Z,8.87
2019-03-08T10:37:24.288Z,8.89
2019-03-08T10:38:34.140Z,8.86
2019-03-08T10:39:44.102Z,8.99
2019-03-08T10:40:54.176Z,8.92
2019-03-08T10:42:04.171Z,9.05
2019-03-08T10:43:14.149Z,9.22
2019-03-08T10:44:24.147Z,9.44
2019-03-08T10:45:34.136Z,9.66
2019-03-08T10:46:44.126Z,9.81
2019-03-08T10:48:00.844Z,9.85
2019-03-08T10:49:10.864Z,9.85
2019-03-08T10:50:20.854Z,10.03
2019-03-08T10:51:30.862Z,10.27
2019-03-08T10:52:40.875Z,10.46
2019-03-08T10:53:50.859Z,10.64
2019-03-08T10:55:08.276Z,10.87
2019-03-08T10:56:18.044Z,11.04
2019-03-08T10:57:27.798Z,11.07
2019-03-08T10:58:37.844Z,11.2
2019-03-08T10:59:47.843Z,11.2
2019-03-08T11:00:57.352Z,11.16
2019-03-08T11:02:07.357Z,11.2
2019-03-08T11:03:17.096Z,11.12
2019-03-08T11:04:27.108Z,11.23
2019-03-08T11:05:36.836Z,11.1
2019-03-08T11:06:46.576Z,10.95
2019-03-08T11:07:56.554Z,10.77
2019-03-08T11:09:06.551Z,10.83
2019-03-08T11:10:16.537Z,10.97
2019-03-08T11:11:26.550Z,10.83
2019-03-08T11:12:36.557Z,10.83
2019-03-08T11:13:48.144Z,10.87
2019-03-08T11:14:57.947Z,10.84
2019-03-08T11:16:08.483Z,10.87
2019-03-08T11:17:18.889Z,11.04
2019-03-08T11:18:29.615Z,11.15
2019-03-08T11:19:40.281Z,11.19
2019-03-08T11:20:51.471Z,11.23
2019-03-08T11:22:01.645Z,11.22
2019-03-08T11:23:11.379Z,11.07
2019-03-08T11:24:21.353Z,10.92
2019-03-08T11:25:39.676Z,10.82
2019-03-08T11:26:49.432Z,10.77
2019-03-08T11:27:59.162Z,10.61
2019-03-08T11:29:08.912Z,10.34
2019-03-08T11:30:18.664Z,10.31
2019-03-08T11:31:29.522Z,10.18
2019-03-08T11:32:40.276Z,10.23
2019-03-08T11:33:51.697Z,10.07
2019-03-08T11:35:01.480Z,10.05
2019-03-08T11:36:11.228Z,9.87
2019-03-08T11:37:21.229Z,9.73
2019-03-08T11:38:33.041Z,9.66
2019-03-08T11:39:42.548Z,9.45
2019-03-08T11:40:52.536Z,9.26
2019-03-08T11:42:03.200Z,9.13
2019-03-08T11:43:13.176Z,8.84
2019-03-08T11:44:23.168Z,8.82
2019-03-08T11:45:33.202Z,8.69
2019-03-08T11:46:43.194Z,8.34
2019-03-08T11:47:53.179Z,7.77
2019-03-08T11:49:02.679Z,7.44
2019-03-08T11:50:12.704Z,7.14
2019-03-08T11:51:22.189Z,6.9
2019-03-08T11:52:32.182Z,6.7
2019-03-08T11:53:42.168Z,6.67
2019-03-08T11:55:01.327Z,6.6
2019-03-08T11:56:11.985Z,6.57
2019-03-08T11:57:22.342Z,6.56
2019-03-08T11:58:32.324Z,6.67
2019-03-08T11:59:42.445Z,6.82
2019-03-08T12:00:53.186Z,6.97
2019-03-08T12:02:03.515Z,6.95
2019-03-08T12:03:13.513Z,7.05
2019-03-08T12:04:23.248Z,7.13
2019-03-08T12:05:33.252Z,7.15
2019-03-08T12:06:43.279Z,7.05
2019-03-08T12:07:53.256Z,7.01
2019-03-08T12:09:02.990Z,7.07
2019-03-08T12:10:12.499Z,7.19
2019-03-08T12:11:22.239Z,7.36
2019-03-08T12:12:31.987Z,7.61
2019-03-08T12:13:42.364Z,7.84
2019-03-08T12:14:52.376Z,8.01
2019-03-08T12:16:02.372Z,8.08
2019-03-08T12:17:12.118Z,8.16
2019-03-08T12:18:22.095Z,8.34
2019-03-08T12:19:32.109Z,8.54
2019-03-08T12:20:41.857Z,8.81
2019-03-08T12:21:51.635Z,9.02
2019-03-08T12:23:01.741Z,8.93
2019-03-08T12:24:11.733Z,9
2019-03-08T12:25:21.748Z,9.21
2019-03-08T12:26:31.776Z,9.21
2019-03-08T12:27:41.072Z,9.36
2019-03-08T12:28:51.142Z,9.34
2019-03-08T12:30:01.150Z,9.3
2019-03-08T12:31:12.143Z,9.26
2019-03-08T12:32:23.499Z,9.21
2019-03-08T12:33:33.632Z,9.21
2019-03-08T12:34:43.633Z,9.08
2019-03-08T12:35:53.378Z,9.11
2019-03-08T12:37:03.359Z,9.13
2019-03-08T12:38:13.110Z,9.12
2019-03-08T12:39:23.124Z,9.27
2019-03-08T12:40:32.638Z,9.02
2019-03-08T12:41:42.928Z,8.92
2019-03-08T12:42:53.215Z,8.81
2019-03-08T12:44:10.520Z,8.64
2019-03-08T12:45:20.713Z,8.44
2019-03-08T12:46:30.723Z,8.46
2019-03-08T12:47:40.713Z,8.54
2019-03-08T12:48:52.693Z,8.79
2019-03-08T12:50:02.493Z,8.97
2019-03-08T12:51:12.522Z,9.18
2019-03-08T12:52:22.310Z,9.22
2019-03-08T12:53:32.065Z,9.33
2019-03-08T12:54:41.570Z,9.54
2019-03-08T12:55:51.573Z,9.51
2019-03-08T12:57:01.585Z,9.59
2019-03-08T12:58:11.597Z,9.67
2019-03-08T12:59:21.604Z,9.85
2019-03-08T13:00:31.593Z,10.02
2019-03-08T13:01:41.612Z,10.34
2019-03-08T13:02:51.368Z,10.1
2019-03-08T13:04:01.357Z,9.88
2019-03-08T13:05:11.390Z,9.72
2019-03-08T13:06:21.411Z,9.55
2019-03-08T13:07:33.420Z,9.37
2019-03-08T13:08:43.422Z,9.27
2019-03-08T13:09:53.184Z,9.26
2019-03-08T13:11:02.691Z,9.3
2019-03-08T13:12:12.445Z,9.24
2019-03-08T13:13:22.441Z,9.24
2019-03-08T13:14:32.441Z,9.44
2019-03-08T13:15:42.451Z,9.58
2019-03-08T13:16:52.230Z,9.63
2019-03-08T13:18:02.222Z,9.87
2019-03-08T13:19:12.226Z,10.09
2019-03-08T13:20:22.212Z,9.87
2019-03-08T13:21:32.223Z,9.88
2019-03-08T13:22:42.215Z,9.9
2019-03-08T13:23:52.212Z,9.97
2019-03-08T13:25:02.694Z,10
2019-03-08T13:26:13.067Z,9.95
2019-03-08T13:27:23.505Z,10.02
2019-03-08T13:28:33.688Z,10.2
2019-03-08T13:29:44.144Z,10.25
2019-03-08T13:30:54.859Z,10.05
2019-03-08T13:32:04.945Z,9.82
2019-03-08T13:33:14.876Z,9.8
2019-03-08T13:34:24.969Z,9.81
2019-03-08T13:35:34.713Z,9.82
2019-03-08T13:36:44.704Z,9.77
2019-03-08T13:37:54.676Z,9.84
2019-03-08T13:39:04.426Z,9.82
2019-03-08T13:40:14.433Z,9.56
2019-03-08T13:41:24.438Z,9.39
2019-03-08T13:42:34.431Z,9.36
2019-03-08T13:43:44.426Z,9.33
2019-03-08T13:44:54.437Z,9.27
2019-03-08T13:46:04.186Z,9.24
2019-03-08T13:47:14.203Z,9.42
2019-03-08T13:48:23.942Z,9.63
2019-03-08T13:49:33.673Z,9.8
2019-03-08T13:50:43.409Z,9.69
2019-03-08T13:51:53.415Z,9.58
2019-03-08T13:53:03.424Z,9.39
2019-03-08T13:54:13.211Z,9.44
2019-03-08T13:55:23.211Z,9.48
2019-03-08T13:56:32.990Z,9.22
2019-03-08T13:57:43.029Z,9.22
2019-03-08T13:58:53.037Z,9.36
2019-03-08T14:00:03.060Z,9.33
2019-03-08T14:01:13.089Z,9.37
2019-03-08T14:02:23.075Z,9.34
2019-03-08T14:03:32.815Z,9.52
2019-03-08T14:04:42.826Z,9.62
2019-03-08T14:05:52.071Z,9.77
2019-03-08T14:07:02.096Z,9.82
2019-03-08T14:08:11.859Z,9.82
2019-03-08T14:09:21.639Z,9.77
2019-03-08T14:10:31.644Z,9.55
2019-03-08T14:11:41.378Z,9.59
2019-03-08T14:12:51.383Z,9.62
2019-03-08T14:14:00.906Z,9.55
2019-03-08T14:15:10.889Z,9.7
2019-03-08T14:16:20.412Z,9.76
2019-03-08T14:17:30.420Z,9.66
2019-03-08T14:18:39.678Z,9.56
2019-03-08T14:19:49.667Z,9.72
2019-03-08T14:20:59.667Z,9.95
2019-03-08T14:22:09.653Z,10.03
2019-03-08T14:23:19.857Z,9.95
2019-03-08T14:24:30.142Z,9.92
2019-03-08T14:25:40.602Z,10.09
2019-03-08T14:26:51.372Z,9.8
2019-03-08T14:28:01.716Z,9.91
2019-03-08T14:29:12.247Z,9.81
2019-03-08T14:30:24.292Z,9.92
2019-03-08T14:31:37.534Z,9.91
2019-03-08T14:32:50.793Z,9.87
2019-03-08T14:34:03.351Z,9.84
2019-03-08T14:35:19.618Z,9.97
2019-03-08T14:36:31.395Z,9.92
2019-03-08T14:37:47.791Z,9.88
2019-03-08T14:39:07.881Z,9.84
2019-03-08T14:40:24.598Z,9.74
2019-03-08T14:41:35.590Z,9.47
2019-03-08T14:42:46.455Z,9.44
2019-03-08T14:43:57.357Z,9.37
2019-03-08T14:45:11.919Z,9.45
2019-03-08T14:46:25.522Z,9.47
2019-03-08T14:47:38.334Z,9.72
2019-03-08T14:48:51.355Z,9.81
2019-03-08T14:50:04.226Z,9.81
2019-03-08T14:51:17.958Z,10
2019-03-08T14:52:27.916Z,9.99
2019-03-08T14:53:39.240Z,10.24
2019-03-08T14:54:52.444Z,10.09
2019-03-08T14:56:04.087Z,10.07
2019-03-08T14:57:29.220Z,10.21
2019-03-08T14:58:42.640Z,10.31
2019-03-08T14:59:57.595Z,10.34
2019-03-08T15:01:10.822Z,10.23
2019-03-08T15:02:20.537Z,10.05
2019-03-08T15:03:30.501Z,9.94
2019-03-08T15:04:48.846Z,9.88
2019-03-08T15:06:01.731Z,10.02
2019-03-08T15:07:11.464Z,9.97
2019-03-08T15:08:22.843Z,9.99
2019-03-08T15:09:35.656Z,10
2019-03-08T15:10:51.318Z,10.02
2019-03-08T15:12:04.398Z,10.1
2019-03-08T15:13:26.866Z,10.09
2019-03-08T15:14:40.295Z,10.15
2019-03-08T15:15:50.510Z,10.24
2019-03-08T15:17:13.260Z,10.25
2019-03-08T15:18:29.473Z,10.18
2019-03-08T15:19:44.532Z,10.1
2019-03-08T15:20:58.447Z,10.1
2019-03-08T15:22:08.492Z,10.1
2019-03-08T15:23:22.068Z,10.07
2019-03-08T15:24:40.760Z,10.09
2019-03-08T15:25:54.085Z,10.1
2019-03-08T15:27:04.344Z,10.09
2019-03-08T15:28:14.516Z,10.09
2019-03-08T15:29:24.842Z,10.18
2019-03-08T15:30:35.249Z,10.21
2019-03-08T15:31:45.523Z,10.12
2019-03-08T15:32:55.658Z,10.1
2019-03-08T15:34:05.380Z,10.05
2019-03-08T15:35:15.116Z,9.97
2019-03-08T15:36:25.112Z,9.94